createdAt,value
2023-02-11T00:02:45.483Z,100993.38
2023-02-11T00:13:07.919Z,100989.97
2023-02-11T00:23:29.188Z,100986.63
2023-02-11T00:33:51.346Z,100982.41
2023-02-11T00:44:12.682Z,100969.13
2023-02-11T00:54:34.480Z,100975.84
2023-02-11T03:27:43.236Z,100906.38
2023-02-11T03:38:22.504Z,100902.22
2023-02-11T03:48:59.617Z,100887.34
2023-02-11T03:59:21.439Z,100871.56
2023-02-11T04:09:43.096Z,100866.56
2023-02-11T04:20:04.591Z,100855.78
2023-02-11T04:30:26.238Z,100847.50
2023-02-11T04:40:47.798Z,100832.53
2023-02-11T04:51:09.670Z,100818.41
2023-02-11T05:01:31.354Z,100806.75
2023-02-11T05:11:53.678Z,100814.22
2023-02-11T05:22:14.863Z,100814.09
2023-02-11T05:32:36.641Z,100804.22
2023-02-11T05:42:58.112Z,100799.34
2023-02-11T05:53:19.264Z,100786.09
2023-02-11T06:03:40.477Z,100778.66
2023-02-11T06:14:02.157Z,100748.78
2023-02-11T06:24:47.668Z,100739.66
2023-02-11T06:35:06.128Z,100728.06
2023-02-11T06:45:27.726Z,100720.59
2023-02-11T06:55:49.308Z,100701.44
2023-02-11T07:06:21.737Z,100672.28
2023-02-11T07:16:43.082Z,100685.63
2023-02-11T07:27:04.684Z,100682.31
2023-02-11T07:37:26.179Z,100674.78
2023-02-11T07:47:47.690Z,100672.31
2023-02-11T07:58:08.689Z,100642.28
2023-02-11T08:08:29.901Z,100613.88
2023-02-11T08:18:52.036Z,100609.59
2023-02-11T08:29:16.190Z,100597.13
2023-02-11T08:39:37.626Z,100592.72
2023-02-11T08:49:59.276Z,100588.72
2023-02-11T09:00:21.023Z,100570.22
2023-02-11T09:10:43.006Z,100561.09
2023-02-11T09:21:07.394Z,100543.69
2023-02-11T09:31:31.475Z,100522.75
2023-02-11T09:42:24.356Z,100503.44
2023-02-11T09:53:18.895Z,100479.16
2023-02-11T10:04:07.615Z,100462.66
2023-02-11T10:14:42.460Z,100447.59
2023-02-11T10:25:21.633Z,100415.81
2023-02-11T10:35:43.923Z,100408.94
2023-02-11T10:46:06.115Z,100381.97
2023-02-11T10:56:33.032Z,100365.31
2023-02-11T13:54:38.648Z,100012.56
2023-02-11T14:05:44.661Z,100009.72
2023-02-11T14:16:11.596Z,100003.94
2023-02-11T14:27:20.757Z,99980.97
2023-02-11T14:38:35.108Z,99958.19
2023-02-11T14:49:02.245Z,99935.13
2023-02-11T14:59:23.953Z,99921.97
2023-02-11T15:09:53.773Z,99907.81
2023-02-11T15:20:28.719Z,99905.41
2023-02-11T15:31:15.007Z,99905.47
2023-02-11T15:41:38.413Z,99878.84
2023-02-11T15:51:59.683Z,99892.97
2023-02-11T16:02:26.668Z,99877.16
2023-02-11T16:13:11.195Z,99873.81
2023-02-11T16:23:36.858Z,99856.34
2023-02-11T16:33:58.343Z,99842.34
2023-02-11T16:44:19.768Z,99826.56
2023-02-11T16:54:41.350Z,99818.00
2023-02-11T17:05:07.974Z,99808.78
2023-02-11T17:15:29.342Z,99801.31
2023-02-11T17:25:57.249Z,99773.75
2023-02-11T17:36:18.299Z,99779.66
2023-02-11T17:46:40.043Z,99769.56
2023-02-11T17:57:01.319Z,99762.06
2023-02-11T18:07:22.503Z,99752.06
2023-02-11T18:17:44.428Z,99745.47
2023-02-11T18:28:05.648Z,99744.66
2023-02-11T18:38:27.212Z,99736.19
2023-02-11T18:48:50.043Z,99728.75
2023-02-11T18:59:12.431Z,99731.97
2023-02-11T19:09:33.425Z,99718.78
2023-02-11T19:19:54.795Z,99708.06
2023-02-11T19:30:16.300Z,99708.25
2023-02-11T19:40:37.454Z,99691.16
2023-02-11T19:50:59.181Z,99673.72
2023-02-11T20:01:23.028Z,99662.00
2023-02-11T20:11:44.234Z,99653.63
2023-02-11T20:22:05.699Z,99645.34
2023-02-11T20:32:27.338Z,99641.38
2023-02-11T20:42:48.881Z,99642.34
2023-02-11T20:53:10.936Z,99629.19
2023-02-11T21:03:32.314Z,99634.22
2023-02-11T21:13:54.210Z,99641.88
2023-02-11T21:24:16.206Z,99617.78
2023-02-11T21:34:37.241Z,99602.81
2023-02-11T21:44:58.303Z,99606.28
2023-02-11T21:55:19.790Z,99598.88
2023-02-11T22:05:41.663Z,99605.41
2023-02-11T22:16:07.868Z,99589.63
2023-02-11T22:26:29.508Z,99597.03
2023-02-11T22:36:50.471Z,99597.00
2023-02-11T22:47:11.491Z,99603.63
2023-02-11T22:57:33.063Z,99612.00
2023-02-11T23:07:54.024Z,99604.59
2023-02-11T23:18:15.616Z,99607.03
2023-02-11T23:28:37.160Z,99617.78
2023-02-11T23:38:58.734Z,99626.09
2023-02-11T23:49:20.511Z,99629.38
2023-02-11T23:59:43.215Z,99636.88
